sensor_id;sensor_type;location;lat;lon;timestamp;temperature;humidity
14014;DHT22;49110;52.584;13.408;2023-11-18T00:00:52;8.10;99.90
14014;DHT22;49110;52.584;13.408;2023-11-18T00:01:53;8.10;99.90
14014;DHT22;49110;52.584;13.408;2023-11-18T00:02:53;8.10;99.90
14014;DHT22;49110;52.584;13.408;2023-11-18T00:03:53;8.10;99.90
14014;DHT22;49110;52.584;13.408;2023-11-18T00:04:55;8.10;99.90
14014;DHT22;49110;52.584;13.408;2023-11-18T00:05:55;8.10;99.90
14014;DHT22;49110;52.584;13.408;2023-11-18T00:06:56;8.10;99.90
14014;DHT22;49110;52.584;13.408;2023-11-18T00:07:57;8.10;99.90
14014;DHT22;49110;52.584;13.408;2023-11-18T00:08:58;8.10;99.90
14014;DHT22;49110;52.584;13.408;2023-11-18T00:09:58;8.10;99.90
14014;DHT22;49110;52.584;13.408;2023-11-18T00:10:59;8.10;99.90
14014;DHT22;49110;52.584;13.408;2023-11-18T00:11:59;8.10;99.90
14014;DHT22;49110;52.584;13.408;2023-11-18T00:12:59;8.10;99.90
14014;DHT22;49110;52.584;13.408;2023-11-18T00:14:02;8.10;99.90
14014;DHT22;49110;52.584;13.408;2023-11-18T00:15:05;8.10;99.90
14014;DHT22;49110;52.584;13.408;2023-11-18T00:16:06;8.10;99.90
14014;DHT22;49110;52.584;13.408;2023-11-18T00:17:07;8.10;99.90
14014;DHT22;49110;52.584;13.408;2023-11-18T00:18:07;8.10;99.90
14014;DHT22;49110;52.584;13.408;2023-11-18T00:19:08;8.10;99.90
14014;DHT22;49110;52.584;13.408;2023-11-18T00:20:09;8.10;99.90
14014;DHT22;49110;52.584;13.408;2023-11-18T00:21:12;8.10;99.90
14014;DHT22;49110;52.584;13.408;2023-11-18T00:22:13;8.10;99.90
14014;DHT22;49110;52.584;13.408;2023-11-18T00:23:13;8.10;99.90
14014;DHT22;49110;52.584;13.408;2023-11-18T00:24:14;8.10;99.90
14014;DHT22;49110;52.584;13.408;2023-11-18T00:25:14;8.10;99.90
14014;DHT22;49110;52.584;13.408;2023-11-18T00:26:15;8.20;99.90
14014;DHT22;49110;52.584;13.408;2023-11-18T00:27:15;8.10;99.90
14014;DHT22;49110;52.584;13.408;2023-11-18T00:28:16;8.10;99.90
14014;DHT22;49110;52.584;13.408;2023-11-18T00:29:19;8.10;99.90
14014;DHT22;49110;52.584;13.408;2023-11-18T00:30:21;8.10;99.90
14014;DHT22;49110;52.584;13.408;2023-11-18T00:31:22;8.00;99.90
14014;DHT22;49110;52.584;13.408;2023-11-18T00:32:23;8.00;99.90
14014;DHT22;49110;52.584;13.408;2023-11-18T00:33:23;8.10;99.90
14014;DHT22;49110;52.584;13.408;2023-11-18T00:34:23;8.10;99.90
14014;DHT22;49110;52.584;13.408;2023-11-18T00:35:24;8.00;99.90
14014;DHT22;49110;52.584;13.408;2023-11-18T00:36:24;8.00;99.90
14014;DHT22;49110;52.584;13.408;2023-11-18T00:37:25;8.00;99.90
14014;DHT22;49110;52.584;13.408;2023-11-18T00:38:26;8.00;99.90
14014;DHT22;49110;52.584;13.408;2023-11-18T00:39:27;8.10;99.90
14014;DHT22;49110;52.584;13.408;2023-11-18T00:40:27;8.10;99.90
14014;DHT22;49110;52.584;13.408;2023-11-18T00:41:29;8.10;99.90
14014;DHT22;49110;52.584;13.408;2023-11-18T00:42:30;8.10;99.90
14014;DHT22;49110;52.584;13.408;2023-11-18T00:43:30;8.10;99.90
14014;DHT22;49110;52.584;13.408;2023-11-18T00:44:31;8.10;99.90
14014;DHT22;49110;52.584;13.408;2023-11-18T00:45:32;8.10;99.90
14014;DHT22;49110;52.584;13.408;2023-11-18T00:46:33;8.10;99.90
14014;DHT22;49110;52.584;13.408;2023-11-18T00:47:36;8.10;99.90
14014;DHT22;49110;52.584;13.408;2023-11-18T00:48:36;8.10;99.90
14014;DHT22;49110;52.584;13.408;2023-11-18T00:49:37;8.00;99.90
14014;DHT22;49110;52.584;13.408;2023-11-18T00:50:37;8.00;99.90
14014;DHT22;49110;52.584;13.408;2023-11-18T00:51:38;8.00;99.90
14014;DHT22;49110;52.584;13.408;2023-11-18T00:52:38;8.00;99.90
14014;DHT22;49110;52.584;13.408;2023-11-18T00:53:41;8.00;99.90
14014;DHT22;49110;52.584;13.408;2023-11-18T00:54:41;8.00;99.90
14014;DHT22;49110;52.584;13.408;2023-11-18T00:55:42;8.00;99.90
14014;DHT22;49110;52.584;13.408;2023-11-18T00:56:42;8.00;99.90
14014;DHT22;49110;52.584;13.408;2023-11-18T00:57:43;8.10;99.90
14014;DHT22;49110;52.584;13.408;2023-11-18T00:58:44;8.00;99.90
14014;DHT22;49110;52.584;13.408;2023-11-18T00:59:44;8.00;99.90
14014;DHT22;49110;52.584;13.408;2023-11-18T01:00:45;8.00;99.90
14014;DHT22;49110;52.584;13.408;2023-11-18T01:01:45;8.00;99.90
14014;DHT22;49110;52.584;13.408;2023-11-18T01:02:46;8.00;99.90
14014;DHT22;49110;52.584;13.408;2023-11-18T01:03:48;8.00;99.90
14014;DHT22;49110;52.584;13.408;2023-11-18T01:04:49;8.10;99.90
14014;DHT22;49110;52.584;13.408;2023-11-18T01:05:50;8.10;99.90
14014;DHT22;49110;52.584;13.408;2023-11-18T01:06:51;8.10;99.90
14014;DHT22;49110;52.584;13.408;2023-11-18T01:07:51;8.10;99.90
14014;DHT22;49110;52.584;13.408;2023-11-18T01:08:52;8.10;99.90
14014;DHT22;49110;52.584;13.408;2023-11-18T01:09:53;8.10;99.90
14014;DHT22;49110;52.584;13.408;2023-11-18T01:10:54;8.10;99.90
14014;DHT22;49110;52.584;13.408;2023-11-18T01:11:54;8.10;99.90
14014;DHT22;49110;52.584;13.408;2023-11-18T01:12:55;8.10;99.90
14014;DHT22;49110;52.584;13.408;2023-11-18T01:13:56;8.10;99.90
14014;DHT22;49110;52.584;13.408;2023-11-18T01:14:57;8.10;99.90
14014;DHT22;49110;52.584;13.408;2023-11-18T01:15:57;8.10;99.90
14014;DHT22;49110;52.584;13.408;2023-11-18T01:16:58;8.10;99.90
14014;DHT22;49110;52.584;13.408;2023-11-18T01:17:58;8.10;99.90
14014;DHT22;49110;52.584;13.408;2023-11-18T01:18:59;8.00;99.90
14014;DHT22;49110;52.584;13.408;2023-11-18T01:19:59;8.00;99.90
14014;DHT22;49110;52.584;13.408;2023-11-18T01:21:03;8.00;99.90
14014;DHT22;49110;52.584;13.408;2023-11-18T01:22:04;8.00;99.90
14014;DHT22;49110;52.584;13.408;2023-11-18T01:23:07;8.00;99.90
14014;DHT22;49110;52.584;13.408;2023-11-18T01:24:07;8.00;99.90
14014;DHT22;49110;52.584;13.408;2023-11-18T01:25:08;8.00;99.90
14014;DHT22;49110;52.584;13.408;2023-11-18T01:26:09;8.00;99.90
14014;DHT22;49110;52.584;13.408;2023-11-18T01:27:10;8.00;99.90
14014;DHT22;49110;52.584;13.408;2023-11-18T01:28:11;8.00;99.90
14014;DHT22;49110;52.584;13.408;2023-11-18T01:29:11;8.00;99.90
14014;DHT22;49110;52.584;13.408;2023-11-18T01:30:13;7.90;99.90
14014;DHT22;49110;52.584;13.408;2023-11-18T01:31:13;7.90;99.90
14014;DHT22;49110;52.584;13.408;2023-11-18T01:32:14;7.90;99.90
14014;DHT22;49110;52.584;13.408;2023-11-18T01:33:15;7.90;99.90
14014;DHT22;49110;52.584;13.408;2023-11-18T01:34:15;7.90;99.90
14014;DHT22;49110;52.584;13.408;2023-11-18T01:35:17;7.90;99.90
14014;DHT22;49110;52.584;13.408;2023-11-18T01:36:17;7.90;99.90
14014;DHT22;49110;52.584;13.408;2023-11-18T01:37:18;7.90;99.90
14014;DHT22;49110;52.584;13.408;2023-11-18T01:38:21;7.80;99.90
14014;DHT22;49110;52.584;13.408;2023-11-18T01:39:22;7.80;99.90
14014;DHT22;49110;52.584;13.408;2023-11-18T01:40:22;7.80;99.90
14014;DHT22;49110;52.584;13.408;2023-11-18T01:41:24;7.90;99.90
14014;DHT22;49110;52.584;13.408;2023-11-18T01:42:25;7.90;99.90
14014;DHT22;49110;52.584;13.408;2023-11-18T01:43:26;7.90;99.90
14014;DHT22;49110;52.584;13.408;2023-11-18T01:44:27;7.80;99.90
14014;DHT22;49110;52.584;13.408;2023-11-18T01:45:30;7.80;99.90
14014;DHT22;49110;52.584;13.408;2023-11-18T01:46:30;7.80;99.90
14014;DHT22;49110;52.584;13.408;2023-11-18T01:47:32;7.80;99.90
14014;DHT22;49110;52.584;13.408;2023-11-18T01:48:33;7.80;99.90
14014;DHT22;49110;52.584;13.408;2023-11-18T01:49:35;7.90;99.90
14014;DHT22;49110;52.584;13.408;2023-11-18T01:50:41;7.90;99.90
14014;DHT22;49110;52.584;13.408;2023-11-18T01:51:43;7.90;99.90
14014;DHT22;49110;52.584;13.408;2023-11-18T01:52:46;7.90;99.90
14014;DHT22;49110;52.584;13.408;2023-11-18T01:53:47;7.90;99.90
14014;DHT22;49110;52.584;13.408;2023-11-18T01:54:48;7.90;99.90
14014;DHT22;49110;52.584;13.408;2023-11-18T01:55:49;7.90;99.90
14014;DHT22;49110;52.584;13.408;2023-11-18T01:56:50;7.80;99.90
14014;DHT22;49110;52.584;13.408;2023-11-18T01:57:52;7.80;99.90
14014;DHT22;49110;52.584;13.408;2023-11-18T01:58:53;7.80;99.90
14014;DHT22;49110;52.584;13.408;2023-11-18T01:59:53;7.90;99.90
14014;DHT22;49110;52.584;13.408;2023-11-18T02:00:55;7.90;99.90
14014;DHT22;49110;52.584;13.408;2023-11-18T02:01:56;7.90;99.90
14014;DHT22;49110;52.584;13.408;2023-11-18T02:02:59;7.90;99.90
14014;DHT22;49110;52.584;13.408;2023-11-18T02:04:00;7.90;99.90
14014;DHT22;49110;52.584;13.408;2023-11-18T02:05:00;7.90;99.90
14014;DHT22;49110;52.584;13.408;2023-11-18T02:06:06;7.90;99.90
14014;DHT22;49110;52.584;13.408;2023-11-18T02:07:07;7.90;99.90
14014;DHT22;49110;52.584;13.408;2023-11-18T02:08:10;7.90;99.90
14014;DHT22;49110;52.584;13.408;2023-11-18T02:09:18;7.90;99.90
14014;DHT22;49110;52.584;13.408;2023-11-18T02:10:19;7.90;99.90
14014;DHT22;49110;52.584;13.408;2023-11-18T02:11:32;7.90;99.90
14014;DHT22;49110;52.584;13.408;2023-11-18T02:13:44;7.90;99.90
14014;DHT22;49110;52.584;13.408;2023-11-18T02:14:48;7.90;99.90
14014;DHT22;49110;52.584;13.408;2023-11-18T02:15:49;7.90;99.90
14014;DHT22;49110;52.584;13.408;2023-11-18T02:16:52;7.90;99.90
14014;DHT22;49110;52.584;13.408;2023-11-18T02:17:57;7.90;99.90
14014;DHT22;49110;52.584;13.408;2023-11-18T02:18:58;7.90;99.90
14014;DHT22;49110;52.584;13.408;2023-11-18T02:20:00;7.90;99.90
14014;DHT22;49110;52.584;13.408;2023-11-18T02:21:02;7.90;99.90
14014;DHT22;49110;52.584;13.408;2023-11-18T02:22:05;7.90;99.90
14014;DHT22;49110;52.584;13.408;2023-11-18T02:23:07;7.80;99.90
14014;DHT22;49110;52.584;13.408;2023-11-18T02:24:08;7.80;99.90
14014;DHT22;49110;52.584;13.408;2023-11-18T02:25:10;7.80;99.90
14014;DHT22;49110;52.584;13.408;2023-11-18T02:26:22;7.80;99.90
14014;DHT22;49110;52.584;13.408;2023-11-18T02:27:22;7.80;99.90
14014;DHT22;49110;52.584;13.408;2023-11-18T02:28:24;7.80;99.90
14014;DHT22;49110;52.584;13.408;2023-11-18T02:29:26;7.80;99.90
14014;DHT22;49110;52.584;13.408;2023-11-18T02:30:27;7.80;99.90
14014;DHT22;49110;52.584;13.408;2023-11-18T02:31:34;7.90;99.90
14014;DHT22;49110;52.584;13.408;2023-11-18T02:32:42;7.90;99.90
14014;DHT22;49110;52.584;13.408;2023-11-18T02:33:54;7.90;99.90
14014;DHT22;49110;52.584;13.408;2023-11-18T02:35:09;7.90;99.90
14014;DHT22;49110;52.584;13.408;2023-11-18T02:36:21;7.90;99.90
14014;DHT22;49110;52.584;13.408;2023-11-18T02:37:24;7.90;99.90
14014;DHT22;49110;52.584;13.408;2023-11-18T02:38:31;7.90;99.90
14014;DHT22;49110;52.584;13.408;2023-11-18T02:39:50;7.90;99.90
14014;DHT22;49110;52.584;13.408;2023-11-18T02:40:55;7.90;99.90
14014;DHT22;49110;52.584;13.408;2023-11-18T02:42:01;7.90;99.90
14014;DHT22;49110;52.584;13.408;2023-11-18T02:43:04;7.90;99.90
14014;DHT22;49110;52.584;13.408;2023-11-18T02:44:07;7.90;99.90
14014;DHT22;49110;52.584;13.408;2023-11-18T02:45:12;7.90;99.90
14014;DHT22;49110;52.584;13.408;2023-11-18T02:46:15;7.90;99.90
14014;DHT22;49110;52.584;13.408;2023-11-18T02:47:16;7.90;99.90
14014;DHT22;49110;52.584;13.408;2023-11-18T02:48:17;7.90;99.90
14014;DHT22;49110;52.584;13.408;2023-11-18T02:49:18;7.90;99.90
14014;DHT22;49110;52.584;13.408;2023-11-18T02:50:18;7.90;99.90
14014;DHT22;49110;52.584;13.408;2023-11-18T02:51:20;7.90;99.90
14014;DHT22;49110;52.584;13.408;2023-11-18T02:52:22;7.90;99.90
14014;DHT22;49110;52.584;13.408;2023-11-18T02:53:23;7.90;99.90
14014;DHT22;49110;52.584;13.408;2023-11-18T02:54:24;7.90;99.90
14014;DHT22;49110;52.584;13.408;2023-11-18T02:55:26;7.90;99.90
14014;DHT22;49110;52.584;13.408;2023-11-18T02:56:27;7.90;99.90
14014;DHT22;49110;52.584;13.408;2023-11-18T02:57:27;7.90;99.90
14014;DHT22;49110;52.584;13.408;2023-11-18T02:58:31;7.90;99.90
14014;DHT22;49110;52.584;13.408;2023-11-18T02:59:33;7.80;99.90
14014;DHT22;49110;52.584;13.408;2023-11-18T03:00:34;7.80;99.90
14014;DHT22;49110;52.584;13.408;2023-11-18T03:01:34;7.80;99.90
14014;DHT22;49110;52.584;13.408;2023-11-18T03:02:35;7.80;99.90
14014;DHT22;49110;52.584;13.408;2023-11-18T03:03:35;7.80;99.90
14014;DHT22;49110;52.584;13.408;2023-11-18T03:04:36;7.80;99.90
14014;DHT22;49110;52.584;13.408;2023-11-18T03:05:37;7.90;99.90
14014;DHT22;49110;52.584;13.408;2023-11-18T03:06:38;7.90;99.90
14014;DHT22;49110;52.584;13.408;2023-11-18T03:07:40;7.80;99.90
14014;DHT22;49110;52.584;13.408;2023-11-18T03:08:41;7.90;99.90
14014;DHT22;49110;52.584;13.408;2023-11-18T03:09:41;7.90;99.90
14014;DHT22;49110;52.584;13.408;2023-11-18T03:10:42;7.90;99.90
14014;DHT22;49110;52.584;13.408;2023-11-18T03:11:44;7.90;99.90
14014;DHT22;49110;52.584;13.408;2023-11-18T03:12:45;7.90;99.90
14014;DHT22;49110;52.584;13.408;2023-11-18T03:13:46;7.80;99.90
14014;DHT22;49110;52.584;13.408;2023-11-18T03:14:46;7.80;99.90
14014;DHT22;49110;52.584;13.408;2023-11-18T03:15:47;7.80;99.90
14014;DHT22;49110;52.584;13.408;2023-11-18T03:16:48;7.70;99.90
14014;DHT22;49110;52.584;13.408;2023-11-18T03:17:50;7.70;99.90
14014;DHT22;49110;52.584;13.408;2023-11-18T03:18:51;7.70;99.90
14014;DHT22;49110;52.584;13.408;2023-11-18T03:19:51;7.70;99.90
14014;DHT22;49110;52.584;13.408;2023-11-18T03:20:52;7.60;99.90
14014;DHT22;49110;52.584;13.408;2023-11-18T03:21:52;7.70;99.90
14014;DHT22;49110;52.584;13.408;2023-11-18T03:22:53;7.70;99.90
14014;DHT22;49110;52.584;13.408;2023-11-18T03:23:53;7.70;99.90
14014;DHT22;49110;52.584;13.408;2023-11-18T03:24:54;7.70;99.90
14014;DHT22;49110;52.584;13.408;2023-11-18T03:25:54;7.70;99.90
14014;DHT22;49110;52.584;13.408;2023-11-18T03:26:56;7.80;99.90
14014;DHT22;49110;52.584;13.408;2023-11-18T03:27:57;7.70;99.90
14014;DHT22;49110;52.584;13.408;2023-11-18T03:28:57;7.70;99.90
14014;DHT22;49110;52.584;13.408;2023-11-18T03:29:58;7.70;99.90
14014;DHT22;49110;52.584;13.408;2023-11-18T03:30:58;7.70;99.90
14014;DHT22;49110;52.584;13.408;2023-11-18T03:31:59;7.80;99.90
14014;DHT22;49110;52.584;13.408;2023-11-18T03:33:00;7.80;99.90
14014;DHT22;49110;52.584;13.408;2023-11-18T03:34:00;7.80;99.90
14014;DHT22;49110;52.584;13.408;2023-11-18T03:35:02;7.80;99.90
14014;DHT22;49110;52.584;13.408;2023-11-18T03:36:03;7.80;99.90
14014;DHT22;49110;52.584;13.408;2023-11-18T03:37:04;7.80;99.90
14014;DHT22;49110;52.584;13.408;2023-11-18T03:38:05;7.80;99.90
14014;DHT22;49110;52.584;13.408;2023-11-18T03:39:05;7.80;99.90
14014;DHT22;49110;52.584;13.408;2023-11-18T03:40:14;7.80;99.90
14014;DHT22;49110;52.584;13.408;2023-11-18T03:41:15;7.80;99.90
14014;DHT22;49110;52.584;13.408;2023-11-18T03:42:15;7.80;99.90
14014;DHT22;49110;52.584;13.408;2023-11-18T03:43:16;7.80;99.90
14014;DHT22;49110;52.584;13.408;2023-11-18T03:44:17;7.80;99.90
14014;DHT22;49110;52.584;13.408;2023-11-18T03:45:17;7.70;99.90
14014;DHT22;49110;52.584;13.408;2023-11-18T03:46:18;7.80;99.90
14014;DHT22;49110;52.584;13.408;2023-11-18T03:47:19;7.70;99.90
14014;DHT22;49110;52.584;13.408;2023-11-18T03:48:19;7.70;99.90
14014;DHT22;49110;52.584;13.408;2023-11-18T03:49:20;7.60;99.90
14014;DHT22;49110;52.584;13.408;2023-11-18T03:50:21;7.60;99.90
14014;DHT22;49110;52.584;13.408;2023-11-18T03:51:21;7.70;99.90
14014;DHT22;49110;52.584;13.408;2023-11-18T03:52:22;7.60;99.90
14014;DHT22;49110;52.584;13.408;2023-11-18T03:53:22;7.60;99.90
14014;DHT22;49110;52.584;13.408;2023-11-18T03:54:23;7.60;99.90
14014;DHT22;49110;52.584;13.408;2023-11-18T03:55:23;7.60;99.90
14014;DHT22;49110;52.584;13.408;2023-11-18T03:56:24;7.60;99.90
14014;DHT22;49110;52.584;13.408;2023-11-18T03:57:27;7.60;99.90
14014;DHT22;49110;52.584;13.408;2023-11-18T03:58:28;7.60;99.90
14014;DHT22;49110;52.584;13.408;2023-11-18T03:59:28;7.60;99.90
14014;DHT22;49110;52.584;13.408;2023-11-18T04:00:28;7.60;99.90
14014;DHT22;49110;52.584;13.408;2023-11-18T04:01:33;7.70;99.90
14014;DHT22;49110;52.584;13.408;2023-11-18T04:02:33;7.60;99.90
14014;DHT22;49110;52.584;13.408;2023-11-18T04:03:36;7.70;99.90
14014;DHT22;49110;52.584;13.408;2023-11-18T04:04:39;7.60;99.90
14014;DHT22;49110;52.584;13.408;2023-11-18T04:05:40;7.60;99.90
14014;DHT22;49110;52.584;13.408;2023-11-18T04:06:40;7.60;99.90
14014;DHT22;49110;52.584;13.408;2023-11-18T04:07:40;7.60;99.90
14014;DHT22;49110;52.584;13.408;2023-11-18T04:08:45;7.60;99.90
14014;DHT22;49110;52.584;13.408;2023-11-18T04:09:46;7.60;99.90
14014;DHT22;49110;52.584;13.408;2023-11-18T04:10:46;7.60;99.90
14014;DHT22;49110;52.584;13.408;2023-11-18T04:11:47;7.60;99.90
14014;DHT22;49110;52.584;13.408;2023-11-18T04:12:48;7.70;99.90
14014;DHT22;49110;52.584;13.408;2023-11-18T04:13:48;7.70;99.90
14014;DHT22;49110;52.584;13.408;2023-11-18T04:14:49;7.70;99.90
14014;DHT22;49110;52.584;13.408;2023-11-18T04:15:49;7.60;99.90
14014;DHT22;49110;52.584;13.408;2023-11-18T04:16:49;7.60;99.90
14014;DHT22;49110;52.584;13.408;2023-11-18T04:17:50;7.60;99.90
14014;DHT22;49110;52.584;13.408;2023-11-18T04:18:50;7.60;99.90
14014;DHT22;49110;52.584;13.408;2023-11-18T04:19:51;7.60;99.90
14014;DHT22;49110;52.584;13.408;2023-11-18T04:20:51;7.60;99.90
14014;DHT22;49110;52.584;13.408;2023-11-18T04:21:52;7.50;99.90
14014;DHT22;49110;52.584;13.408;2023-11-18T04:22:52;7.50;99.90
14014;DHT22;49110;52.584;13.408;2023-11-18T04:23:53;7.60;99.90
14014;DHT22;49110;52.584;13.408;2023-11-18T04:24:53;7.50;99.90
14014;DHT22;49110;52.584;13.408;2023-11-18T04:25:53;7.50;99.90
14014;DHT22;49110;52.584;13.408;2023-11-18T04:26:54;7.50;99.90
14014;DHT22;49110;52.584;13.408;2023-11-18T04:27:55;7.50;99.90
14014;DHT22;49110;52.584;13.408;2023-11-18T04:28:55;7.50;99.90
14014;DHT22;49110;52.584;13.408;2023-11-18T04:29:56;7.50;99.90
14014;DHT22;49110;52.584;13.408;2023-11-18T04:30:56;7.50;99.90
14014;DHT22;49110;52.584;13.408;2023-11-18T04:31:57;7.50;99.90
14014;DHT22;49110;52.584;13.408;2023-11-18T04:33:00;7.60;99.90
14014;DHT22;49110;52.584;13.408;2023-11-18T04:34:00;7.50;99.90
14014;DHT22;49110;52.584;13.408;2023-11-18T04:35:01;7.60;99.90
14014;DHT22;49110;52.584;13.408;2023-11-18T04:36:10;7.60;99.90
14014;DHT22;49110;52.584;13.408;2023-11-18T04:37:10;7.60;99.90
14014;DHT22;49110;52.584;13.408;2023-11-18T04:38:11;7.60;99.90
14014;DHT22;49110;52.584;13.408;2023-11-18T04:39:11;7.60;99.90
14014;DHT22;49110;52.584;13.408;2023-11-18T04:40:12;7.60;99.90
14014;DHT22;49110;52.584;13.408;2023-11-18T04:41:13;7.60;99.90
14014;DHT22;49110;52.584;13.408;2023-11-18T04:42:13;7.70;99.90
14014;DHT22;49110;52.584;13.408;2023-11-18T04:43:14;7.60;99.90
14014;DHT22;49110;52.584;13.408;2023-11-18T04:44:15;7.70;99.90
14014;DHT22;49110;52.584;13.408;2023-11-18T04:45:16;7.70;99.90
14014;DHT22;49110;52.584;13.408;2023-11-18T04:46:17;7.70;99.90
14014;DHT22;49110;52.584;13.408;2023-11-18T04:47:17;7.70;99.90
14014;DHT22;49110;52.584;13.408;2023-11-18T04:48:20;7.70;99.90
14014;DHT22;49110;52.584;13.408;2023-11-18T04:49:21;7.80;99.90
14014;DHT22;49110;52.584;13.408;2023-11-18T04:50:22;7.80;99.90
14014;DHT22;49110;52.584;13.408;2023-11-18T04:51:22;7.80;99.90
14014;DHT22;49110;52.584;13.408;2023-11-18T04:52:22;7.80;99.90
14014;DHT22;49110;52.584;13.408;2023-11-18T04:53:23;7.80;99.90
14014;DHT22;49110;52.584;13.408;2023-11-18T04:54:25;7.80;99.90
14014;DHT22;49110;52.584;13.408;2023-11-18T04:55:26;7.80;99.90
14014;DHT22;49110;52.584;13.408;2023-11-18T04:56:27;7.80;99.90
14014;DHT22;49110;52.584;13.408;2023-11-18T04:57:27;7.80;99.90
14014;DHT22;49110;52.584;13.408;2023-11-18T04:58:28;7.80;99.90
14014;DHT22;49110;52.584;13.408;2023-11-18T04:59:28;7.80;99.90
14014;DHT22;49110;52.584;13.408;2023-11-18T05:00:34;7.80;99.90
14014;DHT22;49110;52.584;13.408;2023-11-18T05:01:35;7.80;99.90
14014;DHT22;49110;52.584;13.408;2023-11-18T05:02:40;7.80;99.90
14014;DHT22;49110;52.584;13.408;2023-11-18T05:03:40;7.80;99.90
14014;DHT22;49110;52.584;13.408;2023-11-18T05:04:41;7.80;99.90
14014;DHT22;49110;52.584;13.408;2023-11-18T05:05:41;7.90;99.90
14014;DHT22;49110;52.584;13.408;2023-11-18T05:06:42;7.80;99.90
14014;DHT22;49110;52.584;13.408;2023-11-18T05:07:43;7.80;99.90
14014;DHT22;49110;52.584;13.408;2023-11-18T05:08:43;7.80;99.90
14014;DHT22;49110;52.584;13.408;2023-11-18T05:09:44;7.80;99.90
14014;DHT22;49110;52.584;13.408;2023-11-18T05:10:48;7.80;99.90
14014;DHT22;49110;52.584;13.408;2023-11-18T05:11:49;7.80;99.90
14014;DHT22;49110;52.584;13.408;2023-11-18T05:12:50;7.80;99.90
14014;DHT22;49110;52.584;13.408;2023-11-18T05:13:55;7.80;99.90
14014;DHT22;49110;52.584;13.408;2023-11-18T05:14:56;7.70;99.90
14014;DHT22;49110;52.584;13.408;2023-11-18T05:15:57;7.60;99.90
14014;DHT22;49110;52.584;13.408;2023-11-18T05:16:58;7.60;99.90
14014;DHT22;49110;52.584;13.408;2023-11-18T05:17:58;7.60;99.90
14014;DHT22;49110;52.584;13.408;2023-11-18T05:18:59;7.60;99.90
14014;DHT22;49110;52.584;13.408;2023-11-18T05:19:59;7.60;99.90
14014;DHT22;49110;52.584;13.408;2023-11-18T05:21:01;7.70;99.90
14014;DHT22;49110;52.584;13.408;2023-11-18T05:22:03;7.70;99.90
14014;DHT22;49110;52.584;13.408;2023-11-18T05:23:03;7.70;99.90
14014;DHT22;49110;52.584;13.408;2023-11-18T05:24:04;7.70;99.90
14014;DHT22;49110;52.584;13.408;2023-11-18T05:25:05;7.70;99.90
14014;DHT22;49110;52.584;13.408;2023-11-18T05:26:06;7.70;99.90
14014;DHT22;49110;52.584;13.408;2023-11-18T05:27:06;7.70;99.90
14014;DHT22;49110;52.584;13.408;2023-11-18T05:28:07;7.70;99.90
14014;DHT22;49110;52.584;13.408;2023-11-18T05:29:11;7.70;99.90
14014;DHT22;49110;52.584;13.408;2023-11-18T05:30:16;7.70;99.90
14014;DHT22;49110;52.584;13.408;2023-11-18T05:31:18;7.70;99.90
14014;DHT22;49110;52.584;13.408;2023-11-18T05:32:18;7.70;99.90
14014;DHT22;49110;52.584;13.408;2023-11-18T05:33:20;7.70;99.90
14014;DHT22;49110;52.584;13.408;2023-11-18T05:34:21;7.70;99.90
14014;DHT22;49110;52.584;13.408;2023-11-18T05:35:21;7.70;99.90
14014;DHT22;49110;52.584;13.408;2023-11-18T05:36:28;7.80;99.90
14014;DHT22;49110;52.584;13.408;2023-11-18T05:37:31;7.80;99.90
14014;DHT22;49110;52.584;13.408;2023-11-18T05:38:38;7.70;99.90
14014;DHT22;49110;52.584;13.408;2023-11-18T05:39:38;7.80;99.90
14014;DHT22;49110;52.584;13.408;2023-11-18T05:40:47;7.70;99.90
14014;DHT22;49110;52.584;13.408;2023-11-18T05:41:57;7.80;99.90
14014;DHT22;49110;52.584;13.408;2023-11-18T05:42:58;7.80;99.90
14014;DHT22;49110;52.584;13.408;2023-11-18T05:43:59;7.70;99.90
14014;DHT22;49110;52.584;13.408;2023-11-18T05:44:59;7.80;99.90
14014;DHT22;49110;52.584;13.408;2023-11-18T05:46:00;7.70;99.90
14014;DHT22;49110;52.584;13.408;2023-11-18T05:47:20;7.80;99.90
14014;DHT22;49110;52.584;13.408;2023-11-18T05:48:21;7.80;99.90
14014;DHT22;49110;52.584;13.408;2023-11-18T05:49:21;7.80;99.90
14014;DHT22;49110;52.584;13.408;2023-11-18T05:50:24;7.80;99.90
14014;DHT22;49110;52.584;13.408;2023-11-18T05:51:26;7.80;99.90
14014;DHT22;49110;52.584;13.408;2023-11-18T05:52:27;7.70;99.90
14014;DHT22;49110;52.584;13.408;2023-11-18T05:53:27;7.70;99.90
14014;DHT22;49110;52.584;13.408;2023-11-18T05:54:28;7.70;99.90
14014;DHT22;49110;52.584;13.408;2023-11-18T05:55:28;7.70;99.90
14014;DHT22;49110;52.584;13.408;2023-11-18T05:56:29;7.70;99.90
14014;DHT22;49110;52.584;13.408;2023-11-18T05:57:29;7.70;99.90
14014;DHT22;49110;52.584;13.408;2023-11-18T05:58:30;7.70;99.90
14014;DHT22;49110;52.584;13.408;2023-11-18T05:59:30;7.80;99.90
14014;DHT22;49110;52.584;13.408;2023-11-18T06:00:30;7.70;99.90
14014;DHT22;49110;52.584;13.408;2023-11-18T06:01:31;7.80;99.90
14014;DHT22;49110;52.584;13.408;2023-11-18T06:02:32;7.70;99.90
14014;DHT22;49110;52.584;13.408;2023-11-18T06:03:34;7.70;99.90
14014;DHT22;49110;52.584;13.408;2023-11-18T06:04:38;7.70;99.90
14014;DHT22;49110;52.584;13.408;2023-11-18T06:05:39;7.70;99.90
14014;DHT22;49110;52.584;13.408;2023-11-18T06:06:41;7.70;99.90
14014;DHT22;49110;52.584;13.408;2023-11-18T06:07:42;7.70;99.90
14014;DHT22;49110;52.584;13.408;2023-11-18T06:08:47;7.70;99.90
14014;DHT22;49110;52.584;13.408;2023-11-18T06:09:48;7.70;99.90
14014;DHT22;49110;52.584;13.408;2023-11-18T06:10:48;7.70;99.90
14014;DHT22;49110;52.584;13.408;2023-11-18T06:11:49;7.70;99.90
14014;DHT22;49110;52.584;13.408;2023-11-18T06:12:49;7.70;99.90
14014;DHT22;49110;52.584;13.408;2023-11-18T06:13:53;7.70;99.90
14014;DHT22;49110;52.584;13.408;2023-11-18T06:14:53;7.70;99.90
14014;DHT22;49110;52.584;13.408;2023-11-18T06:15:54;7.70;99.90
14014;DHT22;49110;52.584;13.408;2023-11-18T06:16:55;7.70;99.90
14014;DHT22;49110;52.584;13.408;2023-11-18T06:17:56;7.70;99.90
14014;DHT22;49110;52.584;13.408;2023-11-18T06:18:57;7.70;99.90
14014;DHT22;49110;52.584;13.408;2023-11-18T06:19:58;7.70;99.90
14014;DHT22;49110;52.584;13.408;2023-11-18T06:20:59;7.70;99.90
14014;DHT22;49110;52.584;13.408;2023-11-18T06:22:00;7.60;99.90
14014;DHT22;49110;52.584;13.408;2023-11-18T06:23:00;7.60;99.90
14014;DHT22;49110;52.584;13.408;2023-11-18T06:24:01;7.60;99.90
14014;DHT22;49110;52.584;13.408;2023-11-18T06:25:05;7.60;99.90
14014;DHT22;49110;52.584;13.408;2023-11-18T06:26:08;7.60;99.90
14014;DHT22;49110;52.584;13.408;2023-11-18T06:27:11;7.60;99.90
14014;DHT22;49110;52.584;13.408;2023-11-18T06:28:12;7.60;99.90
14014;DHT22;49110;52.584;13.408;2023-11-18T06:29:13;7.60;99.90
14014;DHT22;49110;52.584;13.408;2023-11-18T06:30:14;7.60;99.90